sensor_id;sensor_type;location;lat;lon;timestamp;P1;durP1;ratioP1;P2;durP2;ratioP2
9892;SDS011;4985;49.092;8.542;2023-08-21T00:02:12;4.07;;;3.62;;
9892;SDS011;4985;49.092;8.542;2023-08-21T00:04:39;5.03;;;3.90;;
9892;SDS011;4985;49.092;8.542;2023-08-21T00:07:05;4.40;;;3.35;;
9892;SDS011;4985;49.092;8.542;2023-08-21T00:09:34;5.90;;;3.78;;
9892;SDS011;4985;49.092;8.542;2023-08-21T00:12:00;4.70;;;3.53;;
9892;SDS011;4985;49.092;8.542;2023-08-21T00:14:27;4.37;;;3.42;;
9892;SDS011;4985;49.092;8.542;2023-08-21T00:16:53;4.18;;;3.58;;
9892;SDS011;4985;49.092;8.542;2023-08-21T00:19:21;3.60;;;3.30;;
9892;SDS011;4985;49.092;8.542;2023-08-21T00:21:48;6.03;;;3.80;;
9892;SDS011;4985;49.092;8.542;2023-08-21T00:24:14;7.57;;;3.75;;
9892;SDS011;4985;49.092;8.542;2023-08-21T00:26:41;8.60;;;4.28;;
9892;SDS011;4985;49.092;8.542;2023-08-21T00:29:08;6.47;;;3.62;;
9892;SDS011;4985;49.092;8.542;2023-08-21T00:31:34;4.82;;;3.15;;
9892;SDS011;4985;49.092;8.542;2023-08-21T00:34:01;5.57;;;3.30;;
9892;SDS011;4985;49.092;8.542;2023-08-21T00:36:29;6.95;;;3.58;;
9892;SDS011;4985;49.092;8.542;2023-08-21T00:38:55;4.07;;;3.50;;
9892;SDS011;4985;49.092;8.542;2023-08-21T00:41:22;6.45;;;3.80;;
9892;SDS011;4985;49.092;8.542;2023-08-21T00:43:50;4.93;;;3.60;;
9892;SDS011;4985;49.092;8.542;2023-08-21T00:46:16;5.18;;;3.58;;
9892;SDS011;4985;49.092;8.542;2023-08-21T00:48:43;5.05;;;3.92;;
9892;SDS011;4985;49.092;8.542;2023-08-21T00:51:10;7.25;;;3.47;;
9892;SDS011;4985;49.092;8.542;2023-08-21T00:53:41;4.47;;;3.33;;
9892;SDS011;4985;49.092;8.542;2023-08-21T00:56:08;6.25;;;3.40;;
9892;SDS011;4985;49.092;8.542;2023-08-21T00:58:35;3.80;;;3.45;;
9892;SDS011;4985;49.092;8.542;2023-08-21T01:01:02;4.37;;;3.33;;
9892;SDS011;4985;49.092;8.542;2023-08-21T01:03:29;5.50;;;3.42;;
9892;SDS011;4985;49.092;8.542;2023-08-21T01:05:56;7.35;;;3.70;;
9892;SDS011;4985;49.092;8.542;2023-08-21T01:08:25;4.50;;;3.12;;
9892;SDS011;4985;49.092;8.542;2023-08-21T01:11:02;8.82;;;3.83;;
9892;SDS011;4985;49.092;8.542;2023-08-21T01:13:41;6.07;;;3.50;;
9892;SDS011;4985;49.092;8.542;2023-08-21T01:16:14;7.72;;;3.42;;
9892;SDS011;4985;49.092;8.542;2023-08-21T01:18:42;5.65;;;3.78;;
9892;SDS011;4985;49.092;8.542;2023-08-21T01:21:11;5.40;;;3.50;;
9892;SDS011;4985;49.092;8.542;2023-08-21T01:23:40;4.28;;;3.62;;
9892;SDS011;4985;49.092;8.542;2023-08-21T01:26:08;5.07;;;3.45;;
9892;SDS011;4985;49.092;8.542;2023-08-21T01:28:35;5.20;;;3.83;;
9892;SDS011;4985;49.092;8.542;2023-08-21T01:31:05;4.82;;;3.33;;
9892;SDS011;4985;49.092;8.542;2023-08-21T01:33:35;6.18;;;3.80;;
9892;SDS011;4985;49.092;8.542;2023-08-21T01:36:12;5.80;;;3.80;;
9892;SDS011;4985;49.092;8.542;2023-08-21T01:38:41;6.32;;;4.07;;
9892;SDS011;4985;49.092;8.542;2023-08-21T01:41:09;4.05;;;3.65;;
9892;SDS011;4985;49.092;8.542;2023-08-21T01:43:35;4.53;;;3.42;;
9892;SDS011;4985;49.092;8.542;2023-08-21T01:46:02;5.05;;;3.62;;
9892;SDS011;4985;49.092;8.542;2023-08-21T01:48:29;6.18;;;3.75;;
9892;SDS011;4985;49.092;8.542;2023-08-21T01:50:55;5.32;;;3.60;;
9892;SDS011;4985;49.092;8.542;2023-08-21T01:53:22;5.90;;;3.62;;
9892;SDS011;4985;49.092;8.542;2023-08-21T01:55:50;5.78;;;3.78;;
9892;SDS011;4985;49.092;8.542;2023-08-21T01:58:16;4.55;;;3.47;;
9892;SDS011;4985;49.092;8.542;2023-08-21T02:00:45;7.45;;;3.78;;
9892;SDS011;4985;49.092;8.542;2023-08-21T02:03:12;5.40;;;4.03;;
9892;SDS011;4985;49.092;8.542;2023-08-21T02:05:38;4.78;;;3.75;;
9892;SDS011;4985;49.092;8.542;2023-08-21T02:08:05;6.60;;;3.85;;
9892;SDS011;4985;49.092;8.542;2023-08-21T02:10:32;7.90;;;4.00;;
9892;SDS011;4985;49.092;8.542;2023-08-21T02:13:00;4.12;;;3.47;;
9892;SDS011;4985;49.092;8.542;2023-08-21T02:15:27;4.15;;;3.42;;
9892;SDS011;4985;49.092;8.542;2023-08-21T02:17:53;5.53;;;3.78;;
9892;SDS011;4985;49.092;8.542;2023-08-21T02:20:20;5.70;;;3.30;;
9892;SDS011;4985;49.092;8.542;2023-08-21T02:22:47;5.12;;;3.78;;
9892;SDS011;4985;49.092;8.542;2023-08-21T02:25:13;5.32;;;3.87;;
9892;SDS011;4985;49.092;8.542;2023-08-21T02:27:40;6.25;;;3.75;;
9892;SDS011;4985;49.092;8.542;2023-08-21T02:30:08;6.30;;;3.87;;
9892;SDS011;4985;49.092;8.542;2023-08-21T02:32:36;4.82;;;3.90;;
9892;SDS011;4985;49.092;8.542;2023-08-21T02:35:03;3.83;;;3.40;;
9892;SDS011;4985;49.092;8.542;2023-08-21T02:37:31;5.10;;;3.22;;
9892;SDS011;4985;49.092;8.542;2023-08-21T02:39:57;4.57;;;3.37;;
9892;SDS011;4985;49.092;8.542;2023-08-21T02:42:24;6.45;;;3.67;;
9892;SDS011;4985;49.092;8.542;2023-08-21T02:44:51;9.60;;;3.50;;
9892;SDS011;4985;49.092;8.542;2023-08-21T02:47:19;6.10;;;3.67;;
9892;SDS011;4985;49.092;8.542;2023-08-21T02:49:45;3.90;;;3.40;;
9892;SDS011;4985;49.092;8.542;2023-08-21T02:52:12;5.53;;;3.80;;
9892;SDS011;4985;49.092;8.542;2023-08-21T02:54:38;5.37;;;3.60;;
9892;SDS011;4985;49.092;8.542;2023-08-21T02:57:05;5.00;;;3.47;;
9892;SDS011;4985;49.092;8.542;2023-08-21T02:59:32;8.25;;;4.10;;
9892;SDS011;4985;49.092;8.542;2023-08-21T03:01:59;6.10;;;3.33;;
9892;SDS011;4985;49.092;8.542;2023-08-21T03:04:27;3.72;;;3.22;;
9892;SDS011;4985;49.092;8.542;2023-08-21T03:06:53;3.70;;;3.40;;
9892;SDS011;4985;49.092;8.542;2023-08-21T03:09:20;5.90;;;3.30;;
9892;SDS011;4985;49.092;8.542;2023-08-21T03:11:46;6.97;;;3.67;;
9892;SDS011;4985;49.092;8.542;2023-08-21T03:14:13;3.78;;;3.15;;
9892;SDS011;4985;49.092;8.542;2023-08-21T03:16:39;5.20;;;3.80;;
9892;SDS011;4985;49.092;8.542;2023-08-21T03:19:06;5.55;;;3.83;;
9892;SDS011;4985;49.092;8.542;2023-08-21T03:21:34;6.72;;;4.22;;
9892;SDS011;4985;49.092;8.542;2023-08-21T03:24:00;5.55;;;3.78;;
9892;SDS011;4985;49.092;8.542;2023-08-21T03:26:27;4.00;;;3.53;;
9892;SDS011;4985;49.092;8.542;2023-08-21T03:28:53;4.93;;;3.95;;
9892;SDS011;4985;49.092;8.542;2023-08-21T03:31:20;6.00;;;3.70;;
9892;SDS011;4985;49.092;8.542;2023-08-21T03:33:47;3.95;;;3.53;;
9892;SDS011;4985;49.092;8.542;2023-08-21T03:36:13;4.95;;;3.45;;
9892;SDS011;4985;49.092;8.542;2023-08-21T03:38:41;5.05;;;3.30;;
9892;SDS011;4985;49.092;8.542;2023-08-21T03:41:08;6.10;;;3.78;;
9892;SDS011;4985;49.092;8.542;2023-08-21T03:43:34;5.45;;;3.33;;
9892;SDS011;4985;49.092;8.542;2023-08-21T03:46:01;6.80;;;3.15;;
9892;SDS011;4985;49.092;8.542;2023-08-21T03:48:27;9.32;;;4.07;;
9892;SDS011;4985;49.092;8.542;2023-08-21T03:50:54;6.03;;;3.67;;
9892;SDS011;4985;49.092;8.542;2023-08-21T03:53:21;6.60;;;3.92;;
9892;SDS011;4985;49.092;8.542;2023-08-21T03:55:48;4.95;;;3.30;;
9892;SDS011;4985;49.092;8.542;2023-08-21T03:58:15;7.70;;;3.70;;
9892;SDS011;4985;49.092;8.542;2023-08-21T04:00:42;7.70;;;3.70;;
9892;SDS011;4985;49.092;8.542;2023-08-21T04:03:08;4.32;;;3.62;;
9892;SDS011;4985;49.092;8.542;2023-08-21T04:05:35;5.68;;;3.12;;
9892;SDS011;4985;49.092;8.542;2023-08-21T04:08:01;4.05;;;3.22;;
9892;SDS011;4985;49.092;8.542;2023-08-21T04:10:28;3.92;;;3.53;;
9892;SDS011;4985;49.092;8.542;2023-08-21T04:12:56;4.15;;;3.33;;
9892;SDS011;4985;49.092;8.542;2023-08-21T04:15:23;4.35;;;3.45;;
9892;SDS011;4985;49.092;8.542;2023-08-21T04:17:49;4.05;;;3.33;;
9892;SDS011;4985;49.092;8.542;2023-08-21T04:20:16;5.40;;;3.33;;
9892;SDS011;4985;49.092;8.542;2023-08-21T04:22:42;3.45;;;2.92;;
9892;SDS011;4985;49.092;8.542;2023-08-21T04:25:09;5.55;;;3.65;;
9892;SDS011;4985;49.092;8.542;2023-08-21T04:27:36;5.93;;;3.42;;
9892;SDS011;4985;49.092;8.542;2023-08-21T04:30:04;5.30;;;3.80;;
9892;SDS011;4985;49.092;8.542;2023-08-21T04:32:32;6.50;;;3.87;;
9892;SDS011;4985;49.092;8.542;2023-08-21T04:34:58;4.03;;;3.62;;
9892;SDS011;4985;49.092;8.542;2023-08-21T04:37:25;8.27;;;3.80;;
9892;SDS011;4985;49.092;8.542;2023-08-21T04:39:52;6.93;;;4.12;;
9892;SDS011;4985;49.092;8.542;2023-08-21T04:42:19;5.05;;;3.42;;
9892;SDS011;4985;49.092;8.542;2023-08-21T04:44:46;5.50;;;4.05;;
9892;SDS011;4985;49.092;8.542;2023-08-21T04:47:20;4.55;;;3.67;;
9892;SDS011;4985;49.092;8.542;2023-08-21T04:49:48;7.35;;;3.72;;
9892;SDS011;4985;49.092;8.542;2023-08-21T04:52:14;4.85;;;3.55;;
9892;SDS011;4985;49.092;8.542;2023-08-21T04:54:41;5.10;;;3.90;;
9892;SDS011;4985;49.092;8.542;2023-08-21T04:57:07;5.65;;;3.83;;
9892;SDS011;4985;49.092;8.542;2023-08-21T04:59:34;5.75;;;4.15;;
9892;SDS011;4985;49.092;8.542;2023-08-21T05:02:01;5.07;;;3.95;;
9892;SDS011;4985;49.092;8.542;2023-08-21T05:04:29;4.57;;;3.80;;
9892;SDS011;4985;49.092;8.542;2023-08-21T05:06:56;5.40;;;3.72;;
9892;SDS011;4985;49.092;8.542;2023-08-21T05:09:23;5.20;;;3.62;;
9892;SDS011;4985;49.092;8.542;2023-08-21T05:11:49;5.53;;;3.87;;
9892;SDS011;4985;49.092;8.542;2023-08-21T05:14:16;7.55;;;3.80;;
9892;SDS011;4985;49.092;8.542;2023-08-21T05:16:44;5.43;;;4.07;;
9892;SDS011;4985;49.092;8.542;2023-08-21T05:19:11;6.03;;;3.90;;
9892;SDS011;4985;49.092;8.542;2023-08-21T05:21:39;7.05;;;4.22;;
9892;SDS011;4985;49.092;8.542;2023-08-21T05:24:05;4.25;;;3.78;;
9892;SDS011;4985;49.092;8.542;2023-08-21T05:26:32;7.00;;;4.32;;
9892;SDS011;4985;49.092;8.542;2023-08-21T05:28:59;7.22;;;4.12;;
9892;SDS011;4985;49.092;8.542;2023-08-21T05:31:25;5.55;;;3.80;;
9892;SDS011;4985;49.092;8.542;2023-08-21T05:33:52;7.00;;;4.53;;
9892;SDS011;4985;49.092;8.542;2023-08-21T05:36:19;25.80;;;4.12;;
9892;SDS011;4985;49.092;8.542;2023-08-21T05:38:46;5.03;;;4.35;;
9892;SDS011;4985;49.092;8.542;2023-08-21T05:41:13;7.47;;;4.47;;
9892;SDS011;4985;49.092;8.542;2023-08-21T05:43:40;6.28;;;4.70;;
9892;SDS011;4985;49.092;8.542;2023-08-21T05:46:07;4.82;;;3.90;;
9892;SDS011;4985;49.092;8.542;2023-08-21T05:48:34;7.80;;;4.12;;
9892;SDS011;4985;49.092;8.542;2023-08-21T05:51:00;8.18;;;4.45;;
9892;SDS011;4985;49.092;8.542;2023-08-21T05:53:27;6.03;;;4.53;;
9892;SDS011;4985;49.092;8.542;2023-08-21T05:55:55;7.12;;;4.32;;
9892;SDS011;4985;49.092;8.542;2023-08-21T05:58:22;5.95;;;4.40;;
9892;SDS011;4985;49.092;8.542;2023-08-21T06:00:49;5.10;;;4.03;;
9892;SDS011;4985;49.092;8.542;2023-08-21T06:03:15;6.20;;;4.65;;
9892;SDS011;4985;49.092;8.542;2023-08-21T06:05:42;7.25;;;4.53;;
9892;SDS011;4985;49.092;8.542;2023-08-21T06:08:09;5.57;;;4.50;;
9892;SDS011;4985;49.092;8.542;2023-08-21T06:10:35;6.30;;;4.03;;
9892;SDS011;4985;49.092;8.542;2023-08-21T06:13:03;7.32;;;4.70;;
9892;SDS011;4985;49.092;8.542;2023-08-21T06:15:30;6.10;;;3.87;;
9892;SDS011;4985;49.092;8.542;2023-08-21T06:17:57;6.37;;;4.28;;
9892;SDS011;4985;49.092;8.542;2023-08-21T06:20:25;6.85;;;4.15;;
9892;SDS011;4985;49.092;8.542;2023-08-21T06:22:52;7.32;;;4.37;;
9892;SDS011;4985;49.092;8.542;2023-08-21T06:25:19;5.12;;;3.95;;
9892;SDS011;4985;49.092;8.542;2023-08-21T06:27:46;5.78;;;4.50;;
9892;SDS011;4985;49.092;8.542;2023-08-21T06:30:14;8.85;;;4.57;;
9892;SDS011;4985;49.092;8.542;2023-08-21T06:32:42;5.50;;;4.60;;
9892;SDS011;4985;49.092;8.542;2023-08-21T06:35:09;6.28;;;4.05;;
9892;SDS011;4985;49.092;8.542;2023-08-21T06:37:35;4.85;;;4.05;;
9892;SDS011;4985;49.092;8.542;2023-08-21T06:40:02;7.03;;;4.90;;
9892;SDS011;4985;49.092;8.542;2023-08-21T06:42:29;7.10;;;4.70;;
9892;SDS011;4985;49.092;8.542;2023-08-21T06:44:56;10.20;;;4.78;;
9892;SDS011;4985;49.092;8.542;2023-08-21T06:47:24;8.88;;;4.60;;
9892;SDS011;4985;49.092;8.542;2023-08-21T06:49:50;5.93;;;4.82;;
9892;SDS011;4985;49.092;8.542;2023-08-21T06:52:17;6.72;;;4.85;;
9892;SDS011;4985;49.092;8.542;2023-08-21T06:54:43;7.68;;;4.18;;
9892;SDS011;4985;49.092;8.542;2023-08-21T06:57:10;5.93;;;4.37;;
9892;SDS011;4985;49.092;8.542;2023-08-21T06:59:37;6.80;;;4.87;;
9892;SDS011;4985;49.092;8.542;2023-08-21T07:02:03;6.72;;;5.00;;
9892;SDS011;4985;49.092;8.542;2023-08-21T07:04:32;6.32;;;4.97;;
9892;SDS011;4985;49.092;8.542;2023-08-21T07:06:59;8.25;;;5.20;;
9892;SDS011;4985;49.092;8.542;2023-08-21T07:09:25;6.55;;;5.10;;
9892;SDS011;4985;49.092;8.542;2023-08-21T07:11:52;6.32;;;5.18;;
9892;SDS011;4985;49.092;8.542;2023-08-21T07:14:18;6.85;;;5.00;;
9892;SDS011;4985;49.092;8.542;2023-08-21T07:16:45;7.12;;;4.85;;
9892;SDS011;4985;49.092;8.542;2023-08-21T07:19:12;6.28;;;4.70;;
9892;SDS011;4985;49.092;8.542;2023-08-21T07:21:40;7.93;;;4.95;;
9892;SDS011;4985;49.092;8.542;2023-08-21T07:24:06;6.78;;;4.57;;
9892;SDS011;4985;49.092;8.542;2023-08-21T07:26:33;7.07;;;5.03;;
9892;SDS011;4985;49.092;8.542;2023-08-21T07:29:00;6.70;;;5.00;;
9892;SDS011;4985;49.092;8.542;2023-08-21T07:31:26;6.80;;;5.53;;
9892;SDS011;4985;49.092;8.542;2023-08-21T07:33:53;8.02;;;5.40;;
9892;SDS011;4985;49.092;8.542;2023-08-21T07:36:20;5.43;;;4.45;;
9892;SDS011;4985;49.092;8.542;2023-08-21T07:38:48;5.78;;;5.03;;
9892;SDS011;4985;49.092;8.542;2023-08-21T07:41:15;8.30;;;5.20;;
9892;SDS011;4985;49.092;8.542;2023-08-21T07:43:42;7.95;;;5.10;;
9892;SDS011;4985;49.092;8.542;2023-08-21T07:46:10;7.00;;;5.47;;
9892;SDS011;4985;49.092;8.542;2023-08-21T07:48:40;7.10;;;5.57;;
9892;SDS011;4985;49.092;8.542;2023-08-21T07:51:07;7.68;;;5.40;;
9892;SDS011;4985;49.092;8.542;2023-08-21T07:53:34;5.87;;;4.68;;
9892;SDS011;4985;49.092;8.542;2023-08-21T07:56:02;5.35;;;4.80;;
9892;SDS011;4985;49.092;8.542;2023-08-21T07:58:29;7.15;;;4.78;;
9892;SDS011;4985;49.092;8.542;2023-08-21T08:00:56;6.32;;;4.70;;
9892;SDS011;4985;49.092;8.542;2023-08-21T08:03:23;7.32;;;5.32;;
9892;SDS011;4985;49.092;8.542;2023-08-21T08:05:50;7.35;;;5.03;;
9892;SDS011;4985;49.092;8.542;2023-08-21T08:08:17;8.20;;;5.12;;
9892;SDS011;4985;49.092;8.542;2023-08-21T08:10:43;6.50;;;4.90;;
9892;SDS011;4985;49.092;8.542;2023-08-21T08:13:11;7.47;;;5.03;;
9892;SDS011;4985;49.092;8.542;2023-08-21T08:15:38;7.10;;;4.80;;
9892;SDS011;4985;49.092;8.542;2023-08-21T08:18:10;6.45;;;4.68;;
9892;SDS011;4985;49.092;8.542;2023-08-21T08:20:37;8.32;;;4.45;;
9892;SDS011;4985;49.092;8.542;2023-08-21T08:23:03;6.47;;;5.32;;
9892;SDS011;4985;49.092;8.542;2023-08-21T08:25:30;7.22;;;5.22;;
9892;SDS011;4985;49.092;8.542;2023-08-21T08:27:57;9.07;;;4.90;;
9892;SDS011;4985;49.092;8.542;2023-08-21T08:30:25;5.32;;;4.72;;
9892;SDS011;4985;49.092;8.542;2023-08-21T08:32:51;5.97;;;4.70;;
9892;SDS011;4985;49.092;8.542;2023-08-21T08:35:18;6.95;;;5.40;;
9892;SDS011;4985;49.092;8.542;2023-08-21T08:37:44;6.22;;;5.15;;
9892;SDS011;4985;49.092;8.542;2023-08-21T08:40:11;6.68;;;5.00;;
9892;SDS011;4985;49.092;8.542;2023-08-21T08:42:38;7.60;;;4.53;;
9892;SDS011;4985;49.092;8.542;2023-08-21T08:45:05;7.68;;;4.55;;
9892;SDS011;4985;49.092;8.542;2023-08-21T08:47:34;11.12;;;5.57;;
9892;SDS011;4985;49.092;8.542;2023-08-21T08:50:01;7.22;;;4.75;;
9892;SDS011;4985;49.092;8.542;2023-08-21T08:52:30;5.90;;;4.93;;
9892;SDS011;4985;49.092;8.542;2023-08-21T08:55:00;7.43;;;5.07;;
9892;SDS011;4985;49.092;8.542;2023-08-21T08:57:27;5.75;;;4.25;;
9892;SDS011;4985;49.092;8.542;2023-08-21T08:59:53;6.90;;;4.53;;
9892;SDS011;4985;49.092;8.542;2023-08-21T09:02:20;7.85;;;5.10;;
9892;SDS011;4985;49.092;8.542;2023-08-21T09:04:48;8.20;;;5.05;;
9892;SDS011;4985;49.092;8.542;2023-08-21T09:07:16;6.43;;;5.10;;
9892;SDS011;4985;49.092;8.542;2023-08-21T09:09:44;8.20;;;4.87;;
9892;SDS011;4985;49.092;8.542;2023-08-21T09:12:14;8.07;;;5.35;;
9892;SDS011;4985;49.092;8.542;2023-08-21T09:14:41;7.37;;;5.40;;
9892;SDS011;4985;49.092;8.542;2023-08-21T09:17:09;6.57;;;5.57;;
9892;SDS011;4985;49.092;8.542;2023-08-21T09:19:36;7.00;;;5.00;;
9892;SDS011;4985;49.092;8.542;2023-08-21T09:22:14;8.43;;;4.82;;
9892;SDS011;4985;49.092;8.542;2023-08-21T09:27:31;7.07;;;4.97;;
9892;SDS011;4985;49.092;8.542;2023-08-21T09:29:58;8.07;;;5.60;;
9892;SDS011;4985;49.092;8.542;2023-08-21T09:32:24;6.25;;;5.10;;
9892;SDS011;4985;49.092;8.542;2023-08-21T09:34:51;5.72;;;5.05;;
9892;SDS011;4985;49.092;8.542;2023-08-21T09:37:19;7.07;;;4.57;;
9892;SDS011;4985;49.092;8.542;2023-08-21T09:39:46;6.62;;;4.65;;
9892;SDS011;4985;49.092;8.542;2023-08-21T09:42:12;5.95;;;4.53;;
9892;SDS011;4985;49.092;8.542;2023-08-21T09:44:41;4.85;;;4.40;;
9892;SDS011;4985;49.092;8.542;2023-08-21T09:47:08;6.18;;;4.80;;
9892;SDS011;4985;49.092;8.542;2023-08-21T09:49:36;5.87;;;4.30;;
9892;SDS011;4985;49.092;8.542;2023-08-21T09:52:04;6.95;;;4.80;;
9892;SDS011;4985;49.092;8.542;2023-08-21T09:54:33;5.93;;;5.05;;
9892;SDS011;4985;49.092;8.542;2023-08-21T09:57:00;10.02;;;5.30;;
9892;SDS011;4985;49.092;8.542;2023-08-21T09:59:29;6.30;;;4.57;;
9892;SDS011;4985;49.092;8.542;2023-08-21T10:01:55;5.80;;;4.82;;
9892;SDS011;4985;49.092;8.542;2023-08-21T10:04:25;5.90;;;4.60;;
9892;SDS011;4985;49.092;8.542;2023-08-21T10:06:52;5.30;;;4.35;;
9892;SDS011;4985;49.092;8.542;2023-08-21T10:09:22;8.35;;;4.40;;
9892;SDS011;4985;49.092;8.542;2023-08-21T10:11:51;6.20;;;4.68;;
9892;SDS011;4985;49.092;8.542;2023-08-21T10:14:18;6.78;;;5.20;;
9892;SDS011;4985;49.092;8.542;2023-08-21T10:16:46;6.68;;;4.40;;
9892;SDS011;4985;49.092;8.542;2023-08-21T10:19:14;8.55;;;5.37;;
9892;SDS011;4985;49.092;8.542;2023-08-21T10:21:40;13.32;;;5.00;;
9892;SDS011;4985;49.092;8.542;2023-08-21T10:24:07;4.65;;;4.25;;
9892;SDS011;4985;49.092;8.542;2023-08-21T10:26:37;7.37;;;4.62;;
9892;SDS011;4985;49.092;8.542;2023-08-21T10:29:06;6.45;;;4.75;;
9892;SDS011;4985;49.092;8.542;2023-08-21T10:31:33;7.62;;;4.85;;
9892;SDS011;4985;49.092;8.542;2023-08-21T10:34:02;5.72;;;4.50;;
9892;SDS011;4985;49.092;8.542;2023-08-21T10:36:39;5.80;;;4.45;;
9892;SDS011;4985;49.092;8.542;2023-08-21T10:39:12;9.88;;;4.75;;
9892;SDS011;4985;49.092;8.542;2023-08-21T10:41:40;5.90;;;4.40;;
9892;SDS011;4985;49.092;8.542;2023-08-21T10:44:08;5.28;;;4.00;;
9892;SDS011;4985;49.092;8.542;2023-08-21T10:46:50;7.93;;;4.47;;
9892;SDS011;4985;49.092;8.542;2023-08-21T10:49:17;5.57;;;4.68;;
9892;SDS011;4985;49.092;8.542;2023-08-21T10:51:43;6.32;;;4.47;;
9892;SDS011;4985;49.092;8.542;2023-08-21T10:54:11;5.43;;;4.57;;
9892;SDS011;4985;49.092;8.542;2023-08-21T10:56:37;5.55;;;4.65;;
9892;SDS011;4985;49.092;8.542;2023-08-21T10:59:04;6.15;;;4.50;;
9892;SDS011;4985;49.092;8.542;2023-08-21T11:01:42;6.32;;;4.68;;
9892;SDS011;4985;49.092;8.542;2023-08-21T11:04:10;6.82;;;4.72;;
9892;SDS011;4985;49.092;8.542;2023-08-21T11:06:37;5.37;;;4.43;;
9892;SDS011;4985;49.092;8.542;2023-08-21T11:09:04;4.90;;;4.10;;
9892;SDS011;4985;49.092;8.542;2023-08-21T11:11:30;8.30;;;4.78;;
9892;SDS011;4985;49.092;8.542;2023-08-21T11:13:57;6.15;;;4.35;;
9892;SDS011;4985;49.092;8.542;2023-08-21T11:16:24;4.95;;;4.12;;
9892;SDS011;4985;49.092;8.542;2023-08-21T11:18:52;9.27;;;4.55;;
9892;SDS011;4985;49.092;8.542;2023-08-21T11:21:19;6.53;;;4.37;;
9892;SDS011;4985;49.092;8.542;2023-08-21T11:23:45;8.27;;;4.68;;
9892;SDS011;4985;49.092;8.542;2023-08-21T11:26:12;5.70;;;4.57;;
9892;SDS011;4985;49.092;8.542;2023-08-21T11:28:38;6.85;;;4.57;;
9892;SDS011;4985;49.092;8.542;2023-08-21T11:31:05;5.65;;;4.60;;
9892;SDS011;4985;49.092;8.542;2023-08-21T11:33:32;6.57;;;4.72;;
9892;SDS011;4985;49.092;8.542;2023-08-21T11:36:00;5.75;;;4.03;;
9892;SDS011;4985;49.092;8.542;2023-08-21T11:38:27;5.90;;;4.82;;
9892;SDS011;4985;49.092;8.542;2023-08-21T11:40:54;6.75;;;4.25;;
9892;SDS011;4985;49.092;8.542;2023-08-21T11:43:23;5.20;;;4.62;;
9892;SDS011;4985;49.092;8.542;2023-08-21T11:46:00;6.12;;;4.60;;
9892;SDS011;4985;49.092;8.542;2023-08-21T11:48:28;7.15;;;4.43;;
9892;SDS011;4985;49.092;8.542;2023-08-21T11:50:54;5.82;;;4.60;;
9892;SDS011;4985;49.092;8.542;2023-08-21T11:53:35;4.95;;;4.45;;
9892;SDS011;4985;49.092;8.542;2023-08-21T11:56:03;4.47;;;4.05;;
9892;SDS011;4985;49.092;8.542;2023-08-21T11:58:36;6.93;;;4.45;;
9892;SDS011;4985;49.092;8.542;2023-08-21T12:01:04;6.00;;;4.12;;
9892;SDS011;4985;49.092;8.542;2023-08-21T12:03:35;5.70;;;4.47;;
9892;SDS011;4985;49.092;8.542;2023-08-21T12:06:03;6.20;;;4.40;;
9892;SDS011;4985;49.092;8.542;2023-08-21T12:08:31;8.65;;;5.05;;
9892;SDS011;4985;49.092;8.542;2023-08-21T12:10:59;6.65;;;4.30;;
9892;SDS011;4985;49.092;8.542;2023-08-21T12:13:25;7.00;;;5.00;;
9892;SDS011;4985;49.092;8.542;2023-08-21T12:15:52;9.05;;;5.22;;
9892;SDS011;4985;49.092;8.542;2023-08-21T12:18:19;6.78;;;4.40;;
9892;SDS011;4985;49.092;8.542;2023-08-21T12:20:45;4.75;;;3.85;;
9892;SDS011;4985;49.092;8.542;2023-08-21T12:23:12;5.30;;;4.47;;
9892;SDS011;4985;49.092;8.542;2023-08-21T12:25:38;6.35;;;4.22;;
9892;SDS011;4985;49.092;8.542;2023-08-21T12:28:06;6.43;;;4.25;;
9892;SDS011;4985;49.092;8.542;2023-08-21T12:30:33;4.50;;;4.10;;
9892;SDS011;4985;49.092;8.542;2023-08-21T12:33:00;4.28;;;3.87;;
9892;SDS011;4985;49.092;8.542;2023-08-21T12:35:27;4.60;;;4.20;;
9892;SDS011;4985;49.092;8.542;2023-08-21T12:37:56;5.80;;;4.47;;
9892;SDS011;4985;49.092;8.542;2023-08-21T12:40:24;4.18;;;3.67;;
9892;SDS011;4985;49.092;8.542;2023-08-21T12:42:51;4.82;;;3.90;;
9892;SDS011;4985;49.092;8.542;2023-08-21T12:45:19;4.78;;;4.22;;
9892;SDS011;4985;49.092;8.542;2023-08-21T12:47:45;5.35;;;4.20;;
9892;SDS011;4985;49.092;8.542;2023-08-21T12:50:12;7.15;;;4.53;;
9892;SDS011;4985;49.092;8.542;2023-08-21T12:52:38;6.15;;;4.05;;
9892;SDS011;4985;49.092;8.542;2023-08-21T12:55:06;5.62;;;3.90;;
9892;SDS011;4985;49.092;8.542;2023-08-21T12:57:33;6.40;;;4.40;;
9892;SDS011;4985;49.092;8.542;2023-08-21T12:59:59;5.00;;;3.90;;
9892;SDS011;4985;49.092;8.542;2023-08-21T13:02:27;6.40;;;4.07;;
9892;SDS011;4985;49.092;8.542;2023-08-21T13:04:54;5.03;;;3.85;;
9892;SDS011;4985;49.092;8.542;2023-08-21T13:07:21;7.30;;;4.40;;
9892;SDS011;4985;49.092;8.542;2023-08-21T13:09:47;5.87;;;4.22;;
9892;SDS011;4985;49.092;8.542;2023-08-21T13:12:14;5.50;;;4.25;;
9892;SDS011;4985;49.092;8.542;2023-08-21T13:14:41;6.78;;;4.32;;
9892;SDS011;4985;49.092;8.542;2023-08-21T13:17:08;6.15;;;4.07;;
9892;SDS011;4985;49.092;8.542;2023-08-21T13:19:37;5.50;;;3.45;;
9892;SDS011;4985;49.092;8.542;2023-08-21T13:22:03;6.35;;;3.72;;
9892;SDS011;4985;49.092;8.542;2023-08-21T13:24:30;5.55;;;3.72;;
9892;SDS011;4985;49.092;8.542;2023-08-21T13:26:57;6.95;;;4.10;;
9892;SDS011;4985;49.092;8.542;2023-08-21T13:29:23;7.93;;;4.37;;
9892;SDS011;4985;49.092;8.542;2023-08-21T13:31:50;4.72;;;3.92;;
9892;SDS011;4985;49.092;8.542;2023-08-21T13:34:16;5.80;;;4.37;;
9892;SDS011;4985;49.092;8.542;2023-08-21T13:36:44;5.87;;;4.45;;
9892;SDS011;4985;49.092;8.542;2023-08-21T13:39:11;5.70;;;4.05;;
9892;SDS011;4985;49.092;8.542;2023-08-21T13:41:40;5.68;;;3.97;;
9892;SDS011;4985;49.092;8.542;2023-08-21T13:44:07;5.70;;;3.67;;
9892;SDS011;4985;49.092;8.542;2023-08-21T13:46:33;5.82;;;4.07;;
9892;SDS011;4985;49.092;8.542;2023-08-21T13:49:00;7.15;;;4.15;;
9892;SDS011;4985;49.092;8.542;2023-08-21T13:51:27;5.53;;;3.95;;
9892;SDS011;4985;49.092;8.542;2023-08-21T13:53:55;5.47;;;3.90;;
9892;SDS011;4985;49.092;8.542;2023-08-21T13:56:21;4.20;;;3.40;;
9892;SDS011;4985;49.092;8.542;2023-08-21T13:58:48;6.45;;;3.58;;
9892;SDS011;4985;49.092;8.542;2023-08-21T14:01:14;4.28;;;3.35;;
9892;SDS011;4985;49.092;8.542;2023-08-21T14:03:41;4.78;;;3.50;;
9892;SDS011;4985;49.092;8.542;2023-08-21T14:06:08;4.57;;;3.00;;
9892;SDS011;4985;49.092;8.542;2023-08-21T14:08:36;3.55;;;2.92;;
9892;SDS011;4985;49.092;8.542;2023-08-21T14:11:04;5.03;;;3.60;;
9892;SDS011;4985;49.092;8.542;2023-08-21T14:13:30;5.45;;;3.60;;
9892;SDS011;4985;49.092;8.542;2023-08-21T14:15:57;5.95;;;3.40;;
9892;SDS011;4985;49.092;8.542;2023-08-21T14:18:24;3.92;;;3.40;;
9892;SDS011;4985;49.092;8.542;2023-08-21T14:20:50;4.20;;;3.17;;
9892;SDS011;4985;49.092;8.542;2023-08-21T14:23:17;4.20;;;3.50;;
9892;SDS011;4985;49.092;8.542;2023-08-21T14:25:43;5.80;;;3.62;;
9892;SDS011;4985;49.092;8.542;2023-08-21T14:28:11;5.30;;;3.65;;
9892;SDS011;4985;49.092;8.542;2023-08-21T14:30:38;4.53;;;3.90;;
9892;SDS011;4985;49.092;8.542;2023-08-21T14:33:04;3.55;;;3.00;;
9892;SDS011;4985;49.092;8.542;2023-08-21T14:35:31;4.53;;;3.70;;
9892;SDS011;4985;49.092;8.542;2023-08-21T14:37:57;4.97;;;3.30;;
9892;SDS011;4985;49.092;8.542;2023-08-21T14:40:24;4.32;;;3.75;;
9892;SDS011;4985;49.092;8.542;2023-08-21T14:42:51;4.43;;;4.03;;
9892;SDS011;4985;49.092;8.542;2023-08-21T14:45:18;3.72;;;3.30;;
9892;SDS011;4985;49.092;8.542;2023-08-21T14:47:45;4.18;;;3.40;;
9892;SDS011;4985;49.092;8.542;2023-08-21T14:50:11;8.13;;;3.87;;
9892;SDS011;4985;49.092;8.542;2023-08-21T14:52:38;4.45;;;3.80;;
9892;SDS011;4985;49.092;8.542;2023-08-21T14:55:05;5.80;;;3.83;;
9892;SDS011;4985;49.092;8.542;2023-08-21T14:57:32;4.18;;;3.75;;
9892;SDS011;4985;49.092;8.542;2023-08-21T14:59:58;5.20;;;4.18;;
9892;SDS011;4985;49.092;8.542;2023-08-21T15:02:26;5.97;;;3.78;;
9892;SDS011;4985;49.092;8.542;2023-08-21T15:04:53;5.03;;;3.90;;
9892;SDS011;4985;49.092;8.542;2023-08-21T15:07:19;6.70;;;4.28;;
9892;SDS011;4985;49.092;8.542;2023-08-21T15:09:46;6.65;;;3.72;;
9892;SDS011;4985;49.092;8.542;2023-08-21T15:12:13;6.22;;;4.45;;
9892;SDS011;4985;49.092;8.542;2023-08-21T15:14:39;5.53;;;4.40;;
9892;SDS011;4985;49.092;8.542;2023-08-21T15:17:06;5.93;;;4.22;;
9892;SDS011;4985;49.092;8.542;2023-08-21T15:19:34;4.07;;;3.53;;